Time;durP1;ratioP1;P1;durP2;ratioP2;P2;SDS_P1;SDS_P2;PMS_P1;PMS_P2;Temp;Humidity;BMP_temperature;BMP_pressure;BME280_temperature;BME280_humidity;BME280_pressure;Samples;Min_cycle;Max_cycle;Signal;HPM_P1;HPM_P2
2023/01/03 00:01:22;;;;;;;13.43;9.15;;;4.20;99.90;;;;;;5064771;28;20051;-60
2023/01/03 00:03:48;;;;;;;13.82;10.35;;;4.10;99.90;;;;;;5065969;28;20047;-61
2023/01/03 00:06:18;;;;;;;16.67;10.60;;;4.10;99.90;;;;;;5062179;28;20049;-62
2023/01/03 00:08:45;;;;;;;15.88;7.25;;;4.10;99.90;;;;;;5064806;28;20540;-62
2023/01/03 00:11:16;;;;;;;17.08;10.80;;;4.10;99.90;;;;;;5064353;28;20040;-63
2023/01/03 00:13:43;;;;;;;15.60;10.95;;;4.00;99.90;;;;;;5066007;28;20083;-61
2023/01/03 00:16:19;;;;;;;16.13;11.10;;;4.00;99.90;;;;;;5064603;28;20449;-61
2023/01/03 00:18:45;;;;;;;12.57;7.78;;;4.10;99.90;;;;;;5066322;28;20032;-60
2023/01/03 00:21:12;;;;;;;13.85;11.32;;;4.10;99.90;;;;;;5061959;28;20517;-63
2023/01/03 00:23:38;;;;;;;15.00;10.95;;;4.10;99.90;;;;;;5064860;28;20045;-62
2023/01/03 00:26:11;;;;;;;18.80;11.80;;;4.00;99.90;;;;;;5053968;28;20144;-60
2023/01/03 00:28:38;;;;;;;16.58;7.55;;;3.90;99.90;;;;;;5085755;28;20379;-63
2023/01/03 00:31:07;;;;;;;19.20;12.25;;;3.90;99.90;;;;;;5088855;28;20040;-61
2023/01/03 00:33:34;;;;;;;19.27;12.82;;;4.00;99.90;;;;;;5090849;28;20032;-61
2023/01/03 00:36:04;;;;;;;15.02;7.63;;;4.00;99.90;;;;;;5102730;28;20049;-61
2023/01/03 00:38:30;;;;;;;14.98;11.20;;;3.90;99.90;;;;;;5103633;28;20036;-63
2023/01/03 00:41:06;;;;;;;20.33;12.43;;;4.00;99.90;;;;;;5095621;28;20352;-62
2023/01/03 00:43:33;;;;;;;14.05;7.82;;;4.00;99.90;;;;;;5085079;28;20075;-61
2023/01/03 00:45:58;;;;;;;21.63;13.15;;;3.90;99.90;;;;;;5099740;28;20032;-61
2023/01/03 00:48:24;;;;;;;17.90;12.80;;;4.00;99.90;;;;;;5100193;28;20050;-59
2023/01/03 00:50:50;;;;;;;20.33;14.13;;;4.00;99.90;;;;;;5096730;28;20459;-61
2023/01/03 00:53:15;;;;;;;13.45;7.93;;;4.00;99.90;;;;;;5090363;28;20352;-61
2023/01/03 00:55:41;;;;;;;20.98;14.95;;;3.90;99.90;;;;;;5103072;28;20041;-61
2023/01/03 00:58:06;;;;;;;15.82;9.05;;;3.90;99.90;;;;;;5100067;28;20035;-63
2023/01/03 01:00:32;;;;;;;21.73;13.43;;;3.90;99.90;;;;;;5098919;28;20377;-60
2023/01/03 01:02:57;;;;;;;18.73;13.55;;;3.90;99.90;;;;;;5096713;28;20413;-62
2023/01/03 01:05:23;;;;;;;19.60;14.02;;;3.90;99.90;;;;;;5103029;28;20097;-61
2023/01/03 01:07:49;;;;;;;19.75;10.30;;;3.80;99.90;;;;;;5096680;28;20127;-65
2023/01/03 01:10:18;;;;;;;21.80;14.93;;;3.80;99.90;;;;;;5098230;28;20444;-60
2023/01/03 01:12:49;;;;;;;19.98;14.95;;;3.80;99.90;;;;;;5097069;28;20471;-61
2023/01/03 01:15:14;;;;;;;21.88;15.05;;;3.70;99.90;;;;;;5095400;28;20379;-59
2023/01/03 01:17:40;;;;;;;19.85;10.38;;;3.70;99.90;;;;;;5095789;28;20467;-61
2023/01/03 01:20:07;;;;;;;21.48;15.48;;;3.80;99.90;;;;;;5089448;28;20400;-63
2023/01/03 01:22:34;;;;;;;23.40;17.02;;;3.70;99.90;;;;;;5103940;28;20036;-62
2023/01/03 01:24:59;;;;;;;21.92;10.80;;;3.70;99.90;;;;;;5089980;28;20145;-62
2023/01/03 01:27:25;;;;;;;24.25;16.42;;;3.60;99.90;;;;;;5089475;28;20512;-61
2023/01/03 01:29:50;;;;;;;29.60;18.05;;;3.60;99.90;;;;;;5087495;28;20360;-62
2023/01/03 01:32:16;;;;;;;20.50;10.48;;;3.70;99.90;;;;;;5095176;28;20032;-60
2023/01/03 01:34:42;;;;;;;28.65;18.25;;;3.60;99.90;;;;;;5103528;28;20571;-61
2023/01/03 01:37:07;;;;;;;26.42;18.52;;;3.70;99.90;;;;;;5107428;28;20031;-61
2023/01/03 01:39:38;;;;;;;33.17;19.70;;;3.60;99.90;;;;;;5097430;28;20035;-61
2023/01/03 01:44:55;;;;;;;30.10;21.33;;;3.60;99.90;;;;;;5090399;28;20113;-61
2023/01/03 01:47:30;;;;;;;24.88;19.30;;;3.60;99.90;;;;;;5101038;28;20415;-60
2023/01/03 01:50:00;;;;;;;33.92;21.05;;;3.60;99.90;;;;;;5086284;28;20448;-60
2023/01/03 01:52:27;;;;;;;21.10;11.93;;;3.60;99.90;;;;;;5085753;28;20087;-59
2023/01/03 01:55:00;;;;;;;35.05;21.70;;;3.50;99.90;;;;;;5099717;28;20036;-60
2023/01/03 01:57:27;;;;;;;23.15;12.20;;;3.60;99.90;;;;;;5105217;28;20430;-62
2023/01/03 01:59:52;;;;;;;32.80;22.17;;;3.40;99.90;;;;;;5091815;28;20043;-61
2023/01/03 02:02:20;;;;;;;28.27;13.00;;;3.50;99.90;;;;;;5094056;28;20436;-61
2023/01/03 02:04:49;;;;;;;29.88;21.15;;;3.40;99.90;;;;;;5091620;28;20052;-61
2023/01/03 02:07:17;;;;;;;34.13;23.85;;;3.50;99.90;;;;;;5098339;28;20085;-61
2023/01/03 02:09:42;;;;;;;25.90;12.93;;;3.40;99.90;;;;;;5103285;28;20054;-62
2023/01/03 02:15:46;;;;;;;36.08;24.20;;;3.40;99.90;;;;;;5087336;28;20144;-61
2023/01/03 02:18:39;;;;;;;33.15;22.77;;;3.50;99.90;;;;;;5090857;28;20130;-59
2023/01/03 02:21:11;;;;;;;35.13;16.70;;;3.40;99.90;;;;;;5093694;28;20138;-61
2023/01/03 02:24:05;;;;;;;36.03;24.45;;;3.50;99.90;;;;;;5071442;28;20090;-63
2023/01/03 02:26:49;;;;;;;27.73;14.02;;;3.40;99.90;;;;;;5099495;28;20551;-60
2023/01/03 02:29:17;;;;;;;36.30;24.30;;;3.40;99.90;;;;;;5084579;28;20044;-62
2023/01/03 02:32:08;;;;;;;30.73;14.63;;;3.30;99.90;;;;;;5089012;28;20136;-60
2023/01/03 02:34:43;;;;;;;33.45;25.42;;;3.30;99.90;;;;;;5098757;28;20046;-61
2023/01/03 02:37:30;;;;;;;35.65;25.42;;;3.40;99.90;;;;;;5103655;28;20036;-61
2023/01/03 02:39:56;;;;;;;30.52;15.68;;;3.50;99.90;;;;;;5084161;28;20466;-63
2023/01/03 02:43:01;;;;;;;33.45;25.17;;;3.40;99.90;;;;;;5096786;28;20043;-60
2023/01/03 02:45:58;;;;;;;35.50;25.47;;;3.30;99.90;;;;;;5098711;28;20122;-60
2023/01/03 02:48:45;;;;;;;24.27;14.30;;;3.30;99.90;;;;;;5088146;28;20425;-61
2023/01/03 02:51:35;;;;;;;32.38;24.98;;;3.30;99.90;;;;;;5092879;28;20037;-62
2023/01/03 02:54:02;;;;;;;28.65;15.85;;;3.30;99.90;;;;;;5094818;28;20122;-59
2023/01/03 02:56:35;;;;;;;32.60;24.20;;;3.20;99.90;;;;;;5101536;28;20040;-59
2023/01/03 02:59:08;;;;;;;32.90;24.30;;;3.30;99.90;;;;;;5088559;28;20044;-61
2023/01/03 03:01:36;;;;;;;26.33;14.70;;;3.30;99.90;;;;;;5092937;28;20067;-61
2023/01/03 03:04:05;;;;;;;30.88;13.70;;;3.20;99.90;;;;;;5092775;28;20105;-61
2023/01/03 03:06:47;;;;;;;32.92;24.13;;;3.10;99.90;;;;;;5101864;28;20028;-59
2023/01/03 03:09:13;;;;;;;25.73;13.75;;;3.20;99.90;;;;;;5090240;28;20090;-60
2023/01/03 03:14:53;;;;;;;26.63;14.52;;;3.20;99.90;;;;;;5088657;28;20044;-62
2023/01/03 03:17:23;;;;;;;26.40;13.98;;;3.10;99.90;;;;;;5088402;28;20125;-61
2023/01/03 03:25:47;;;;;;;28.88;21.10;;;3.10;99.90;;;;;;5088130;28;20059;-62
2023/01/03 03:28:35;;;;;;;22.10;13.18;;;3.00;99.90;;;;;;5100529;28;20101;-62
2023/01/03 03:31:21;;;;;;;23.85;13.77;;;3.00;99.90;;;;;;5091037;28;20051;-60
2023/01/03 03:33:50;;;;;;;26.10;21.38;;;3.00;99.90;;;;;;5085606;28;20126;-61
2023/01/03 03:36:24;;;;;;;29.95;20.88;;;3.00;99.90;;;;;;5091708;28;20037;-62
2023/01/03 03:38:50;;;;;;;24.25;12.80;;;3.00;99.90;;;;;;5100335;28;20034;-61
2023/01/03 03:47:17;;;;;;;26.45;21.60;;;3.00;99.90;;;;;;5090229;28;20058;-59
2023/01/03 03:49:47;;;;;;;28.83;23.10;;;3.10;99.90;;;;;;5085439;28;20105;-61
2023/01/03 03:52:18;;;;;;;25.10;13.27;;;3.00;99.90;;;;;;5089235;28;20051;-61
2023/01/03 03:54:49;;;;;;;29.20;22.38;;;3.00;99.90;;;;;;5093044;28;20040;-60
2023/01/03 03:57:22;;;;;;;26.33;20.38;;;3.00;99.90;;;;;;5087317;28;20032;-61
2023/01/03 03:59:52;;;;;;;25.25;14.00;;;3.00;99.90;;;;;;5084780;28;20123;-61
2023/01/03 04:02:21;;;;;;;29.80;22.10;;;3.00;99.90;;;;;;5089521;28;20075;-61
2023/01/03 04:04:51;;;;;;;23.15;12.85;;;2.90;99.90;;;;;;5099231;28;20036;-58
2023/01/03 04:07:16;;;;;;;29.42;22.27;;;2.90;99.90;;;;;;5096593;28;20040;-61
2023/01/03 04:09:42;;;;;;;25.52;13.35;;;2.80;99.90;;;;;;5091717;28;20039;-61
2023/01/03 04:12:08;;;;;;;29.13;22.75;;;2.90;99.90;;;;;;5089292;28;20419;-62
2023/01/03 04:14:34;;;;;;;34.53;23.08;;;2.80;99.90;;;;;;5092597;28;20051;-60
2023/01/03 04:17:00;;;;;;;26.05;13.68;;;2.80;99.90;;;;;;5087637;28;20036;-60
2023/01/03 04:19:26;;;;;;;33.92;23.38;;;2.80;99.90;;;;;;5088973;28;20357;-61
2023/01/03 04:21:51;;;;;;;28.20;22.10;;;2.90;99.90;;;;;;5092753;28;20032;-61
2023/01/03 04:24:19;;;;;;;24.42;12.70;;;2.90;99.90;;;;;;5094729;28;20039;-61
2023/01/03 04:26:45;;;;;;;28.33;21.85;;;2.90;99.90;;;;;;5085575;28;20484;-62
2023/01/03 04:29:11;;;;;;;24.25;13.68;;;2.80;99.90;;;;;;5070008;28;20128;-61
2023/01/03 04:31:37;;;;;;;29.60;22.63;;;2.80;99.90;;;;;;5069674;28;20044;-61
2023/01/03 04:34:02;;;;;;;24.60;13.93;;;2.90;99.90;;;;;;5069138;28;20055;-59
2023/01/03 04:36:28;;;;;;;32.35;22.23;;;2.80;99.90;;;;;;5070500;28;20037;-59
2023/01/03 04:38:54;;;;;;;28.75;21.63;;;2.90;99.90;;;;;;5065447;28;20047;-61
2023/01/03 04:41:19;;;;;;;27.38;14.10;;;2.90;99.90;;;;;;5070807;28;20032;-60
2023/01/03 04:44:00;;;;;;;28.05;22.08;;;2.90;99.90;;;;;;5070157;28;20032;-60
2023/01/03 04:46:27;;;;;;;28.75;21.75;;;2.90;99.90;;;;;;5066950;28;20047;-61
2023/01/03 04:48:52;;;;;;;29.27;21.75;;;3.00;99.90;;;;;;5065884;28;20029;-61
2023/01/03 04:51:18;;;;;;;24.05;13.70;;;2.80;99.90;;;;;;5070045;28;20040;-60
2023/01/03 04:53:46;;;;;;;29.15;22.77;;;2.90;99.90;;;;;;5068030;28;20032;-61
2023/01/03 04:56:12;;;;;;;31.77;21.90;;;2.80;99.90;;;;;;5069868;28;20044;-61
2023/01/03 04:58:37;;;;;;;25.88;20.13;;;2.80;99.90;;;;;;5064381;28;20037;-61
2023/01/03 05:01:06;;;;;;;21.77;12.85;;;2.90;99.90;;;;;;5067337;28;20098;-61
2023/01/03 05:03:33;;;;;;;27.77;21.30;;;2.70;99.90;;;;;;5067278;28;20365;-61
2023/01/03 05:06:02;;;;;;;24.05;14.20;;;2.80;99.90;;;;;;5071540;28;20105;-62
2023/01/03 05:08:28;;;;;;;25.88;20.23;;;2.70;99.90;;;;;;5053680;28;20064;-63
2023/01/03 05:10:54;;;;;;;25.92;20.42;;;2.80;99.90;;;;;;5066332;28;20037;-61
2023/01/03 05:13:19;;;;;;;23.13;12.55;;;2.80;99.90;;;;;;5068697;28;20096;-61
2023/01/03 05:15:45;;;;;;;26.48;20.83;;;2.80;99.90;;;;;;5067862;28;20572;-63
2023/01/03 05:18:11;;;;;;;23.80;13.23;;;2.90;99.90;;;;;;5067016;28;20029;-60
2023/01/03 05:26:19;;;;;;;23.23;18.88;;;2.80;99.90;;;;;;5067799;28;20415;-60
2023/01/03 05:28:50;;;;;;;23.15;12.60;;;2.80;99.90;;;;;;5102382;28;20044;-61
2023/01/03 05:31:16;;;;;;;24.98;19.55;;;2.70;99.90;;;;;;5096288;28;20071;-63
2023/01/03 05:33:41;;;;;;;26.75;20.13;;;2.60;99.90;;;;;;5098691;28;20371;-61
2023/01/03 05:36:08;;;;;;;27.27;19.60;;;2.70;99.90;;;;;;5094294;28;20044;-63
2023/01/03 05:38:34;;;;;;;21.85;11.65;;;2.60;99.90;;;;;;5091899;28;20072;-61
2023/01/03 05:41:00;;;;;;;25.05;19.42;;;2.60;99.90;;;;;;5097071;28;20039;-61
2023/01/03 05:43:25;;;;;;;22.33;11.32;;;2.70;99.90;;;;;;5093434;28;20821;-61
2023/01/03 05:45:52;;;;;;;22.40;18.23;;;2.70;99.90;;;;;;5096232;28;20043;-61
2023/01/03 05:48:19;;;;;;;23.30;12.68;;;2.70;99.90;;;;;;5103635;28;20506;-60
2023/01/03 05:50:45;;;;;;;21.85;11.20;;;2.60;99.90;;;;;;5093908;28;20036;-61
2023/01/03 05:53:10;;;;;;;25.77;19.63;;;2.60;99.90;;;;;;5096425;28;20031;-60
2023/01/03 05:55:37;;;;;;;20.23;11.35;;;2.60;99.90;;;;;;5093999;28;20321;-63
2023/01/03 05:58:03;;;;;;;23.25;19.80;;;2.50;99.90;;;;;;5095707;28;20047;-61
2023/01/03 06:00:29;;;;;;;20.90;11.80;;;2.50;99.90;;;;;;5077154;28;20028;-62
2023/01/03 06:02:56;;;;;;;24.73;19.55;;;2.40;99.90;;;;;;5077786;28;20528;-60
2023/01/03 06:05:22;;;;;;;25.83;20.13;;;2.40;99.90;;;;;;5073042;28;20460;-61
2023/01/03 06:07:48;;;;;;;25.30;13.75;;;2.40;99.90;;;;;;5090161;28;20043;-61
2023/01/03 06:10:13;;;;;;;22.55;13.00;;;2.40;99.90;;;;;;5094359;28;20043;-61
2023/01/03 06:12:39;;;;;;;22.25;12.38;;;2.40;99.90;;;;;;5096010;28;20119;-63
2023/01/03 06:15:05;;;;;;;30.15;23.33;;;2.30;99.90;;;;;;5050854;28;20058;-62
2023/01/03 06:20:15;;;;;;;32.57;23.97;;;2.40;99.90;;;;;;5094107;28;20051;-60
2023/01/03 06:22:41;;;;;;;32.22;25.10;;;2.40;99.90;;;;;;5096868;28;20266;-63
2023/01/03 06:25:32;;;;;;;30.40;24.80;;;2.30;99.90;;;;;;5101761;28;20115;-64
2023/01/03 06:27:58;;;;;;;29.02;13.65;;;2.30;99.90;;;;;;5075115;28;20132;-61
2023/01/03 06:30:23;;;;;;;49.38;24.30;;;2.30;99.90;;;;;;5083377;28;20037;-64
2023/01/03 06:32:55;;;;;;;26.17;12.93;;;2.30;99.90;;;;;;5080483;28;20048;-62
2023/01/03 06:35:21;;;;;;;30.33;11.65;;;2.20;99.90;;;;;;5084199;28;20342;-62
2023/01/03 06:37:46;;;;;;;33.95;11.73;;;2.10;99.90;;;;;;5085390;28;20411;-62
2023/01/03 06:40:12;;;;;;;60.63;23.77;;;1.90;99.90;;;;;;5082793;28;20368;-65
2023/01/03 06:42:44;;;;;;;41.00;11.60;;;2.00;99.90;;;;;;5082798;28;20460;-63
2023/01/03 06:53:30;;;;;;;101.10;12.80;;;1.90;99.90;;;;;;5081641;28;20454;-62
2023/01/03 06:55:56;;;;;;;108.90;13.93;;;1.90;99.90;;;;;;5078021;28;20048;-62
2023/01/03 06:58:21;;;;;;;146.20;16.98;;;2.00;99.90;;;;;;5079296;28;20384;-62
2023/01/03 07:00:47;;;;;;;82.45;15.35;;;2.00;99.90;;;;;;5080042;28;20028;-61
2023/01/03 07:03:13;;;;;;;168.05;35.25;;;2.10;99.90;;;;;;5077245;28;20036;-61
2023/01/03 07:05:38;;;;;;;71.40;14.88;;;2.20;99.90;;;;;;5082747;28;20040;-62
2023/01/03 07:08:04;;;;;;;148.15;34.22;;;2.30;99.90;;;;;;5082888;28;20048;-62
2023/01/03 07:10:29;;;;;;;218.38;38.50;;;2.30;99.90;;;;;;5081529;28;20044;-63
2023/01/03 07:15:44;;;;;;;70.53;15.63;;;2.60;99.90;;;;;;5080639;28;20040;-59
2023/01/03 07:18:09;;;;;;;92.93;17.13;;;2.60;99.90;;;;;;5078722;28;20079;-63
2023/01/03 07:20:39;;;;;;;329.90;50.50;;;2.70;99.90;;;;;;5085403;28;20060;-61
2023/01/03 07:23:04;;;;;;;75.68;16.75;;;2.70;99.90;;;;;;5080155;28;20397;-61
2023/01/03 07:25:30;;;;;;;259.55;47.92;;;2.90;99.90;;;;;;5087872;28;20512;-60
2023/01/03 07:28:02;;;;;;;76.50;18.35;;;2.90;99.90;;;;;;5093965;28;20060;-62
2023/01/03 07:30:45;;;;;;;153.05;42.42;;;3.10;99.90;;;;;;5091131;28;20484;-61
2023/01/03 07:33:13;;;;;;;111.05;24.48;;;3.10;99.90;;;;;;5102090;28;20447;-62
2023/01/03 07:35:38;;;;;;;130.05;22.77;;;3.20;99.90;;;;;;5094743;28;20043;-61
2023/01/03 07:38:05;;;;;;;137.35;46.65;;;3.20;99.90;;;;;;5093882;28;20395;-62
2023/01/03 07:40:31;;;;;;;180.25;27.27;;;3.30;99.90;;;;;;5078675;28;20117;-63
2023/01/03 07:45:42;;;;;;;82.90;40.80;;;3.40;99.90;;;;;;5098827;28;20468;-62
2023/01/03 07:48:08;;;;;;;58.25;23.42;;;3.60;99.90;;;;;;5102254;28;20404;-63
2023/01/03 07:50:35;;;;;;;57.40;22.50;;;3.70;99.90;;;;;;5089329;28;20033;-61
2023/01/03 07:53:00;;;;;;;65.60;39.08;;;3.60;99.90;;;;;;5081392;28;20040;-61
2023/01/03 07:55:27;;;;;;;77.05;42.17;;;3.70;99.90;;;;;;5078760;28;20049;-62
2023/01/03 07:57:54;;;;;;;48.90;22.80;;;3.90;99.90;;;;;;5099727;28;20049;-62
2023/01/03 08:00:19;;;;;;;61.25;39.00;;;3.80;99.90;;;;;;5104027;28;20462;-62
2023/01/03 08:02:45;;;;;;;48.58;23.38;;;4.00;99.90;;;;;;5102307;28;20031;-62
2023/01/03 08:05:10;;;;;;;67.63;39.78;;;3.90;99.90;;;;;;5105458;28;20058;-61
2023/01/03 08:07:36;;;;;;;52.80;23.60;;;4.00;99.90;;;;;;5103472;28;20035;-63
2023/01/03 08:15:30;;;;;;;73.53;40.63;;;4.20;99.90;;;;;;5096180;28;20379;-59
2023/01/03 08:17:55;;;;;;;64.28;41.03;;;4.30;99.90;;;;;;5100284;28;20032;-59
2023/01/03 08:20:21;;;;;;;60.55;26.63;;;4.30;99.90;;;;;;5094125;28;20368;-60
2023/01/03 08:22:46;;;;;;;50.58;23.13;;;4.30;99.90;;;;;;5102986;28;20032;-59
2023/01/03 08:25:12;;;;;;;62.60;41.08;;;4.30;99.90;;;;;;5106398;28;20101;-60
2023/01/03 08:27:38;;;;;;;54.67;23.65;;;4.30;99.90;;;;;;5109359;28;20113;-60
2023/01/03 08:30:05;;;;;;;67.22;41.15;;;4.30;99.90;;;;;;5106806;28;20082;-62
2023/01/03 08:32:32;;;;;;;65.18;40.22;;;4.40;99.90;;;;;;5109159;28;20035;-62
2023/01/03 08:34:58;;;;;;;69.93;43.47;;;4.50;99.90;;;;;;5081458;28;20059;-60
2023/01/03 08:37:25;;;;;;;78.40;43.97;;;4.40;99.90;;;;;;5103037;28;20054;-61
2023/01/03 08:39:55;;;;;;;63.85;27.75;;;4.60;99.90;;;;;;5097036;28;20035;-61
2023/01/03 08:42:22;;;;;;;55.53;26.00;;;4.50;99.90;;;;;;5093887;28;20459;-61
2023/01/03 08:44:54;;;;;;;70.93;44.22;;;4.60;99.90;;;;;;5094351;28;20487;-61
2023/01/03 08:47:20;;;;;;;67.20;41.45;;;4.40;99.90;;;;;;5092866;28;20364;-62
2023/01/03 08:49:45;;;;;;;75.32;44.97;;;4.40;99.90;;;;;;5089559;28;20083;-61
2023/01/03 08:52:11;;;;;;;62.53;25.77;;;4.50;99.90;;;;;;5098903;28;20063;-61
2023/01/03 08:54:38;;;;;;;61.40;27.88;;;4.60;99.90;;;;;;5104782;28;20038;-61
2023/01/03 08:57:03;;;;;;;80.57;46.67;;;4.50;99.90;;;;;;5084333;28;20036;-63
2023/01/03 08:59:29;;;;;;;80.28;47.45;;;4.40;99.90;;;;;;5094462;28;20032;-61
2023/01/03 09:02:01;;;;;;;80.20;48.75;;;4.50;99.90;;;;;;5086451;28;20135;-61
2023/01/03 09:04:27;;;;;;;67.55;29.20;;;4.60;99.90;;;;;;5098593;28;20064;-61
2023/01/03 09:06:52;;;;;;;80.45;47.53;;;4.70;99.90;;;;;;5110805;28;20051;-61
2023/01/03 09:09:18;;;;;;;72.28;46.30;;;4.70;99.90;;;;;;5090978;28;20044;-61
2023/01/03 09:11:43;;;;;;;78.35;49.13;;;4.60;99.90;;;;;;5091071;28;20044;-61
2023/01/03 09:14:09;;;;;;;68.20;31.65;;;4.60;99.90;;;;;;5099120;28;20467;-62
2023/01/03 09:16:34;;;;;;;75.97;49.55;;;4.80;99.90;;;;;;5105013;28;20512;-62
2023/01/03 09:19:01;;;;;;;74.88;48.20;;;4.70;99.90;;;;;;5105453;28;20035;-62
2023/01/03 09:21:27;;;;;;;61.85;29.52;;;4.70;99.90;;;;;;5069270;28;20051;-62
2023/01/03 09:23:53;;;;;;;75.65;47.72;;;4.80;99.90;;;;;;5091255;28;20040;-60
2023/01/03 09:26:19;;;;;;;77.72;48.38;;;4.90;99.90;;;;;;5091840;28;20048;-62
2023/01/03 09:28:44;;;;;;;77.43;48.22;;;4.90;99.90;;;;;;5084600;28;20069;-62
2023/01/03 09:31:10;;;;;;;79.95;50.55;;;4.80;99.90;;;;;;5095051;28;20372;-63
2023/01/03 09:33:36;;;;;;;67.53;44.42;;;4.80;99.90;;;;;;5096188;28;20028;-64
2023/01/03 09:36:01;;;;;;;73.35;46.80;;;4.90;99.90;;;;;;5102732;28;20492;-62
2023/01/03 09:38:27;;;;;;;78.32;47.13;;;4.90;99.90;;;;;;5070355;28;20423;-62
2023/01/03 09:41:02;;;;;;;69.80;44.97;;;5.00;99.90;;;;;;5100097;28;20043;-64
2023/01/03 09:43:39;;;;;;;72.22;46.10;;;5.00;99.90;;;;;;5105605;28;20345;-62
2023/01/03 09:46:10;;;;;;;73.38;48.13;;;5.10;99.90;;;;;;5095904;28;20380;-64
2023/01/03 09:48:39;;;;;;;63.90;43.70;;;5.20;99.90;;;;;;5086072;28;20133;-64
2023/01/03 10:03:42;;;;;;;67.68;30.52;;;5.20;99.90;;;;;;5094024;28;20040;-65
2023/01/03 10:05:21;;;;;;;56.83;26.73;;;5.40;99.90;;;;;;5084215;28;19926;-64
2023/01/03 10:07:59;;;;;;;65.05;41.92;;;5.40;99.90;;;;;;5088694;28;20032;-62
2023/01/03 10:10:37;;;;;;;61.97;40.40;;;5.40;99.90;;;;;;5086236;28;20079;-64
2023/01/03 10:13:16;;;;;;;57.10;39.65;;;5.50;99.90;;;;;;5090864;28;20047;-62
2023/01/03 10:15:56;;;;;;;57.78;39.95;;;5.60;99.90;;;;;;5085829;28;20444;-64
2023/01/03 10:18:44;;;;;;;58.10;40.22;;;5.40;99.90;;;;;;5084961;28;20032;-62
2023/01/03 10:21:30;;;;;;;52.13;36.33;;;5.60;99.90;;;;;;5091927;28;20085;-63
2023/01/03 10:23:56;;;;;;;45.72;23.38;;;5.70;99.90;;;;;;5092649;28;20136;-62
2023/01/03 10:26:31;;;;;;;44.72;33.78;;;5.60;99.90;;;;;;5102738;28;20526;-62
2023/01/03 10:28:57;;;;;;;39.88;29.80;;;5.80;99.90;;;;;;5086896;28;20110;-63
2023/01/03 10:31:25;;;;;;;39.17;29.98;;;5.80;99.90;;;;;;5095825;28;20036;-62
2023/01/03 10:33:51;;;;;;;36.78;28.65;;;5.90;99.90;;;;;;5097208;28;20031;-62
2023/01/03 10:36:19;;;;;;;38.10;27.38;;;5.90;99.90;;;;;;5098224;28;20038;-62
2023/01/03 10:38:45;;;;;;;34.08;26.05;;;5.90;99.90;;;;;;5088680;28;20119;-62
2023/01/03 10:41:29;;;;;;;36.88;26.38;;;6.00;99.90;;;;;;5092039;28;20472;-64
2023/01/03 10:44:02;;;;;;;33.20;25.38;;;5.90;99.90;;;;;;5075493;28;20036;-63
2023/01/03 10:46:29;;;;;;;32.45;19.30;;;6.00;99.90;;;;;;5101509;28;20039;-63
2023/01/03 10:49:10;;;;;;;34.25;24.80;;;5.90;99.90;;;;;;5085425;28;20161;-63
2023/01/03 10:51:42;;;;;;;33.70;26.15;;;6.00;99.90;;;;;;5084799;28;20055;-66
2023/01/03 10:54:27;;;;;;;35.50;25.75;;;6.20;99.90;;;;;;5096387;28;20526;-64
2023/01/03 10:56:52;;;;;;;37.75;25.40;;;6.20;99.90;;;;;;5098483;28;20040;-62
2023/01/03 10:59:29;;;;;;;32.50;23.92;;;6.20;99.90;;;;;;5093229;28;20051;-64
2023/01/03 11:02:22;;;;;;;32.63;23.92;;;6.20;99.90;;;;;;5087612;28;20404;-62
2023/01/03 11:05:03;;;;;;;32.15;23.33;;;6.20;99.90;;;;;;5090343;28;20056;-62
2023/01/03 11:07:29;;;;;;;32.65;23.52;;;6.10;99.90;;;;;;5090737;28;20039;-63
2023/01/03 11:09:58;;;;;;;34.90;24.20;;;6.20;99.90;;;;;;5087755;28;20133;-63
2023/01/03 11:12:38;;;;;;;31.83;23.92;;;6.20;99.90;;;;;;5093631;28;20042;-63
2023/01/03 11:15:15;;;;;;;35.13;23.60;;;6.30;99.90;;;;;;5087003;28;20047;-63
2023/01/03 11:18:16;;;;;;;31.15;21.80;;;6.30;99.90;;;;;;5088509;28;20035;-62
2023/01/03 11:20:56;;;;;;;32.42;23.85;;;6.40;99.90;;;;;;5066588;28;20048;-62
2023/01/03 11:23:43;;;;;;;29.63;23.02;;;6.40;99.90;;;;;;5084758;28;20028;-62
2023/01/03 11:26:35;;;;;;;29.77;21.80;;;6.40;99.90;;;;;;5099729;28;20083;-62
2023/01/03 11:29:34;;;;;;;31.83;23.52;;;6.30;99.90;;;;;;5064070;28;20059;-64
2023/01/03 11:32:16;;;;;;;30.63;22.20;;;6.40;99.90;;;;;;5089297;28;20043;-64
2023/01/03 11:35:12;;;;;;;29.85;21.58;;;6.40;99.90;;;;;;5082489;28;20032;-64
2023/01/03 11:37:48;;;;;;;34.03;22.67;;;6.30;99.90;;;;;;5087781;28;20024;-64
2023/01/03 11:40:24;;;;;;;30.88;21.45;;;6.50;99.90;;;;;;5095017;28;20101;-64
2023/01/03 11:43:10;;;;;;;32.13;21.90;;;6.60;99.90;;;;;;5089462;28;20039;-63
2023/01/03 11:46:14;;;;;;;34.47;21.80;;;6.60;99.90;;;;;;5091538;28;20039;-63
2023/01/03 11:48:55;;;;;;;35.20;21.85;;;6.50;99.90;;;;;;5084891;28;20036;-64
2023/01/03 11:51:46;;;;;;;36.78;23.50;;;6.40;99.90;;;;;;5084307;28;20041;-63
2023/01/03 11:54:44;;;;;;;29.63;21.27;;;6.60;99.90;;;;;;5090016;28;20359;-63
2023/01/03 11:57:24;;;;;;;31.52;21.85;;;6.50;99.90;;;;;;5086931;28;20060;-64
2023/01/03 12:00:01;;;;;;;31.77;21.90;;;6.50;99.90;;;;;;5095861;28;20040;-64
2023/01/03 12:02:37;;;;;;;33.38;23.23;;;6.60;99.90;;;;;;5097309;28;20451;-62
2023/01/03 12:05:15;;;;;;;36.63;23.77;;;6.60;99.90;;;;;;5095750;28;20173;-62
2023/01/03 12:07:51;;;;;;;33.70;21.65;;;6.50;99.90;;;;;;5086859;28;20103;-62
2023/01/03 12:10:45;;;;;;;33.70;21.77;;;6.50;99.90;;;;;;5092979;28;20032;-62
2023/01/03 12:13:35;;;;;;;34.75;22.38;;;6.60;99.90;;;;;;5089702;28;20043;-62
2023/01/03 12:16:02;;;;;;;30.92;20.60;;;6.70;99.90;;;;;;5086495;28;20036;-62
2023/01/03 12:18:51;;;;;;;31.92;21.35;;;6.70;99.90;;;;;;5099728;28;20521;-62
2023/01/03 12:21:39;;;;;;;30.83;20.55;;;6.70;99.90;;;;;;5088977;28;20352;-61
2023/01/03 12:24:10;;;;;;;32.70;22.15;;;6.70;99.90;;;;;;5090619;28;20040;-64
2023/01/03 12:26:40;;;;;;;33.20;21.33;;;6.80;99.90;;;;;;5092158;28;20464;-64
2023/01/03 12:29:20;;;;;;;31.35;22.17;;;6.70;99.90;;;;;;5098380;28;20100;-64
2023/01/03 12:31:58;;;;;;;33.15;22.58;;;6.70;99.90;;;;;;5091614;28;20070;-64
2023/01/03 12:34:47;;;;;;;33.70;21.73;;;6.80;99.90;;;;;;5084282;28;20032;-63
2023/01/03 12:37:19;;;;;;;29.38;21.17;;;6.80;99.90;;;;;;5089524;28;20044;-64
2023/01/03 12:40:02;;;;;;;29.67;20.63;;;6.90;99.90;;;;;;5085075;28;20115;-64
2023/01/03 12:42:45;;;;;;;30.63;20.15;;;6.80;99.90;;;;;;5097169;28;20051;-62
2023/01/03 12:45:48;;;;;;;31.52;20.75;;;6.80;99.90;;;;;;5101616;28;20095;-64
2023/01/03 12:48:43;;;;;;;30.75;21.38;;;6.80;99.90;;;;;;5089518;28;20094;-64
2023/01/03 12:51:17;;;;;;;28.42;19.88;;;7.00;99.90;;;;;;5084606;28;20095;-63
2023/01/03 12:54:14;;;;;;;28.15;20.10;;;6.90;99.90;;;;;;5087480;28;20051;-63
2023/01/03 12:57:03;;;;;;;30.38;20.20;;;6.90;99.90;;;;;;5089833;28;20039;-63
2023/01/03 12:59:49;;;;;;;29.05;20.83;;;7.00;99.90;;;;;;5087264;28;20040;-63
2023/01/03 13:02:58;;;;;;;34.03;22.35;;;7.10;99.90;;;;;;5092777;28;20341;-63
2023/01/03 13:05:34;;;;;;;27.30;20.45;;;7.20;99.90;;;;;;4993830;28;20046;-63
2023/01/03 13:08:03;;;;;;;26.45;18.35;;;7.20;99.90;;;;;;5080684;28;20060;-62
2023/01/03 13:10:32;;;;;;;26.17;18.63;;;7.20;99.90;;;;;;5098454;28;20431;-64
2023/01/03 13:12:59;;;;;;;25.60;18.23;;;7.30;99.90;;;;;;5067657;28;20060;-62
2023/01/03 13:15:34;;;;;;;24.77;18.48;;;7.20;99.90;;;;;;5099642;28;20127;-63
2023/01/03 13:18:22;;;;;;;26.15;18.63;;;7.20;99.90;;;;;;5083975;28;20089;-62
2023/01/03 13:20:53;;;;;;;26.90;18.80;;;7.20;99.90;;;;;;5100679;28;20043;-64
2023/01/03 13:23:55;;;;;;;24.27;18.10;;;7.20;99.90;;;;;;5097125;28;20039;-64
2023/01/03 13:26:26;;;;;;;25.08;17.05;;;7.30;99.90;;;;;;5084047;28;20083;-61
2023/01/03 13:29:30;;;;;;;22.60;16.65;;;7.30;99.90;;;;;;5094645;28;20082;-62
2023/01/03 13:32:14;;;;;;;21.15;17.10;;;7.40;99.90;;;;;;5089813;28;20078;-64
2023/01/03 13:34:39;;;;;;;18.40;15.00;;;7.20;99.90;;;;;;5095540;28;20036;-64
2023/01/03 13:37:05;;;;;;;20.50;15.73;;;7.30;99.90;;;;;;5108458;28;20127;-63
2023/01/03 13:39:42;;;;;;;22.27;15.23;;;7.30;99.90;;;;;;5103217;28;20032;-62
2023/01/03 13:42:19;;;;;;;23.08;15.85;;;7.40;99.90;;;;;;5095896;28;20047;-61
2023/01/03 13:44:44;;;;;;;23.48;14.95;;;7.40;99.90;;;;;;5091453;28;20041;-62
2023/01/03 13:47:25;;;;;;;20.60;15.68;;;7.50;99.90;;;;;;5098514;28;20047;-62
2023/01/03 13:49:51;;;;;;;21.25;14.70;;;7.40;99.90;;;;;;5086231;28;20101;-62
2023/01/03 13:52:54;;;;;;;21.40;14.80;;;7.40;99.90;;;;;;5077139;28;20035;-62
2023/01/03 13:55:46;;;;;;;22.25;15.32;;;7.50;99.90;;;;;;5096352;28;20058;-62
2023/01/03 13:58:25;;;;;;;18.60;15.18;;;7.50;99.90;;;;;;5093853;28;20161;-62
2023/01/03 14:00:53;;;;;;;18.35;13.95;;;7.50;99.90;;;;;;5093124;28;20036;-62